sensor_id;sensor_type;location;lat;lon;timestamp;P1;durP1;ratioP1;P2;durP2;ratioP2
20363;SDS011;10340;53.664;9.908;2022-09-20T00:00:46;1.67;;;1.58;;
20363;SDS011;10340;53.664;9.908;2022-09-20T00:03:14;1.77;;;1.67;;
20363;SDS011;10340;53.664;9.908;2022-09-20T00:05:43;2.03;;;1.55;;
20363;SDS011;10340;53.664;9.908;2022-09-20T00:08:11;2.60;;;1.75;;
20363;SDS011;10340;53.664;9.908;2022-09-20T00:10:39;2.58;;;1.60;;
20363;SDS011;10340;53.664;9.908;2022-09-20T00:13:07;2.03;;;1.83;;
20363;SDS011;10340;53.664;9.908;2022-09-20T00:15:38;1.77;;;1.55;;
20363;SDS011;10340;53.664;9.908;2022-09-20T00:18:09;1.75;;;1.65;;
20363;SDS011;10340;53.664;9.908;2022-09-20T00:20:36;2.10;;;1.90;;
20363;SDS011;10340;53.664;9.908;2022-09-20T00:23:10;1.85;;;1.58;;
20363;SDS011;10340;53.664;9.908;2022-09-20T00:25:37;3.35;;;1.48;;
20363;SDS011;10340;53.664;9.908;2022-09-20T00:28:04;3.33;;;1.90;;
20363;SDS011;10340;53.664;9.908;2022-09-20T00:30:31;1.95;;;1.73;;
20363;SDS011;10340;53.664;9.908;2022-09-20T00:32:58;2.47;;;1.95;;
20363;SDS011;10340;53.664;9.908;2022-09-20T00:35:27;2.20;;;1.70;;
20363;SDS011;10340;53.664;9.908;2022-09-20T00:37:55;2.15;;;1.45;;
20363;SDS011;10340;53.664;9.908;2022-09-20T00:40:22;2.20;;;1.50;;
20363;SDS011;10340;53.664;9.908;2022-09-20T00:42:50;4.15;;;2.05;;
20363;SDS011;10340;53.664;9.908;2022-09-20T00:45:18;2.22;;;1.90;;
20363;SDS011;10340;53.664;9.908;2022-09-20T00:47:48;3.60;;;2.00;;
20363;SDS011;10340;53.664;9.908;2022-09-20T00:50:24;2.63;;;1.90;;
20363;SDS011;10340;53.664;9.908;2022-09-20T00:52:59;2.50;;;1.70;;
20363;SDS011;10340;53.664;9.908;2022-09-20T00:55:32;1.60;;;1.50;;
20363;SDS011;10340;53.664;9.908;2022-09-20T00:58:00;2.08;;;1.60;;
20363;SDS011;10340;53.664;9.908;2022-09-20T01:00:27;3.05;;;2.22;;
20363;SDS011;10340;53.664;9.908;2022-09-20T01:02:55;2.20;;;1.75;;
20363;SDS011;10340;53.664;9.908;2022-09-20T01:05:24;2.28;;;2.00;;
20363;SDS011;10340;53.664;9.908;2022-09-20T01:07:52;2.78;;;1.83;;
20363;SDS011;10340;53.664;9.908;2022-09-20T01:10:23;3.65;;;2.13;;
20363;SDS011;10340;53.664;9.908;2022-09-20T01:12:50;2.78;;;1.75;;
20363;SDS011;10340;53.664;9.908;2022-09-20T01:15:18;2.17;;;2.00;;
20363;SDS011;10340;53.664;9.908;2022-09-20T01:17:46;1.60;;;1.50;;
20363;SDS011;10340;53.664;9.908;2022-09-20T01:20:17;1.60;;;1.50;;
20363;SDS011;10340;53.664;9.908;2022-09-20T01:23:01;2.42;;;1.40;;
20363;SDS011;10340;53.664;9.908;2022-09-20T01:25:46;1.63;;;1.52;;
20363;SDS011;10340;53.664;9.908;2022-09-20T01:28:27;3.67;;;2.10;;
20363;SDS011;10340;53.664;9.908;2022-09-20T01:30:56;2.75;;;2.00;;
20363;SDS011;10340;53.664;9.908;2022-09-20T01:33:32;4.32;;;2.15;;
20363;SDS011;10340;53.664;9.908;2022-09-20T01:36:04;2.78;;;1.60;;
20363;SDS011;10340;53.664;9.908;2022-09-20T01:38:34;2.13;;;1.92;;
20363;SDS011;10340;53.664;9.908;2022-09-20T01:41:08;2.15;;;1.85;;
20363;SDS011;10340;53.664;9.908;2022-09-20T01:43:43;1.48;;;1.38;;
20363;SDS011;10340;53.664;9.908;2022-09-20T01:46:20;1.75;;;1.65;;
20363;SDS011;10340;53.664;9.908;2022-09-20T01:48:55;1.33;;;1.23;;
20363;SDS011;10340;53.664;9.908;2022-09-20T01:51:46;1.50;;;1.40;;
20363;SDS011;10340;53.664;9.908;2022-09-20T01:57:59;3.17;;;2.20;;
20363;SDS011;10340;53.664;9.908;2022-09-20T02:00:55;2.45;;;1.92;;
20363;SDS011;10340;53.664;9.908;2022-09-20T02:03:47;2.42;;;1.80;;
20363;SDS011;10340;53.664;9.908;2022-09-20T02:06:37;2.70;;;2.50;;
20363;SDS011;10340;53.664;9.908;2022-09-20T02:09:40;2.42;;;1.98;;
20363;SDS011;10340;53.664;9.908;2022-09-20T02:15:26;2.88;;;2.20;;
20363;SDS011;10340;53.664;9.908;2022-09-20T02:18:24;2.10;;;1.90;;
20363;SDS011;10340;53.664;9.908;2022-09-20T02:21:04;2.40;;;2.17;;
20363;SDS011;10340;53.664;9.908;2022-09-20T02:23:43;2.55;;;2.35;;
20363;SDS011;10340;53.664;9.908;2022-09-20T02:26:21;3.75;;;2.10;;
20363;SDS011;10340;53.664;9.908;2022-09-20T02:28:59;4.07;;;2.85;;
20363;SDS011;10340;53.664;9.908;2022-09-20T02:31:40;4.28;;;3.03;;
20363;SDS011;10340;53.664;9.908;2022-09-20T02:37:32;6.90;;;3.75;;
20363;SDS011;10340;53.664;9.908;2022-09-20T02:40:13;5.78;;;3.08;;
20363;SDS011;10340;53.664;9.908;2022-09-20T02:42:52;6.05;;;3.33;;
20363;SDS011;10340;53.664;9.908;2022-09-20T02:45:25;3.47;;;3.00;;
20363;SDS011;10340;53.664;9.908;2022-09-20T02:47:59;3.42;;;3.13;;
20363;SDS011;10340;53.664;9.908;2022-09-20T02:50:30;3.20;;;2.90;;
20363;SDS011;10340;53.664;9.908;2022-09-20T02:53:06;4.20;;;3.30;;
20363;SDS011;10340;53.664;9.908;2022-09-20T02:55:49;7.70;;;3.10;;
20363;SDS011;10340;53.664;9.908;2022-09-20T02:58:28;4.45;;;3.20;;
20363;SDS011;10340;53.664;9.908;2022-09-20T03:01:04;3.53;;;3.22;;
20363;SDS011;10340;53.664;9.908;2022-09-20T03:03:39;5.82;;;3.35;;
20363;SDS011;10340;53.664;9.908;2022-09-20T03:06:11;5.93;;;3.20;;
20363;SDS011;10340;53.664;9.908;2022-09-20T03:08:49;7.60;;;3.50;;
20363;SDS011;10340;53.664;9.908;2022-09-20T03:11:26;4.32;;;3.25;;
20363;SDS011;10340;53.664;9.908;2022-09-20T03:14:08;3.55;;;3.22;;
20363;SDS011;10340;53.664;9.908;2022-09-20T03:16:45;5.70;;;3.42;;
20363;SDS011;10340;53.664;9.908;2022-09-20T03:19:26;3.95;;;3.22;;
20363;SDS011;10340;53.664;9.908;2022-09-20T03:22:02;5.45;;;3.45;;
20363;SDS011;10340;53.664;9.908;2022-09-20T03:24:42;3.58;;;3.28;;
20363;SDS011;10340;53.664;9.908;2022-09-20T03:27:24;3.22;;;2.72;;
20363;SDS011;10340;53.664;9.908;2022-09-20T03:30:00;3.58;;;3.22;;
20363;SDS011;10340;53.664;9.908;2022-09-20T03:32:51;4.82;;;2.90;;
20363;SDS011;10340;53.664;9.908;2022-09-20T03:35:30;5.70;;;3.22;;
20363;SDS011;10340;53.664;9.908;2022-09-20T03:38:20;3.80;;;2.78;;
20363;SDS011;10340;53.664;9.908;2022-09-20T03:47:12;2.67;;;2.47;;
20363;SDS011;10340;53.664;9.908;2022-09-20T03:52:52;2.85;;;2.45;;
20363;SDS011;10340;53.664;9.908;2022-09-20T03:55:56;3.38;;;2.50;;
20363;SDS011;10340;53.664;9.908;2022-09-20T03:58:48;2.42;;;2.22;;
20363;SDS011;10340;53.664;9.908;2022-09-20T04:01:35;3.80;;;2.47;;
20363;SDS011;10340;53.664;9.908;2022-09-20T04:04:12;2.38;;;1.90;;
20363;SDS011;10340;53.664;9.908;2022-09-20T04:06:54;2.13;;;2.00;;
20363;SDS011;10340;53.664;9.908;2022-09-20T04:09:55;2.17;;;2.00;;
20363;SDS011;10340;53.664;9.908;2022-09-20T04:12:31;2.33;;;2.10;;
20363;SDS011;10340;53.664;9.908;2022-09-20T04:15:15;3.30;;;1.92;;
20363;SDS011;10340;53.664;9.908;2022-09-20T04:17:51;2.20;;;2.00;;
20363;SDS011;10340;53.664;9.908;2022-09-20T04:20:27;2.40;;;2.20;;
20363;SDS011;10340;53.664;9.908;2022-09-20T04:23:02;2.63;;;2.42;;
20363;SDS011;10340;53.664;9.908;2022-09-20T04:25:37;2.03;;;1.90;;
20363;SDS011;10340;53.664;9.908;2022-09-20T04:28:09;3.28;;;2.72;;
20363;SDS011;10340;53.664;9.908;2022-09-20T04:30:41;3.10;;;2.80;;
20363;SDS011;10340;53.664;9.908;2022-09-20T04:33:11;2.72;;;2.33;;
20363;SDS011;10340;53.664;9.908;2022-09-20T04:35:45;2.38;;;2.17;;
20363;SDS011;10340;53.664;9.908;2022-09-20T04:38:38;2.60;;;2.17;;
20363;SDS011;10340;53.664;9.908;2022-09-20T04:44:19;2.35;;;2.17;;
20363;SDS011;10340;53.664;9.908;2022-09-20T04:47:20;2.58;;;2.38;;
20363;SDS011;10340;53.664;9.908;2022-09-20T04:53:23;3.75;;;3.45;;
20363;SDS011;10340;53.664;9.908;2022-09-20T04:56:06;4.30;;;3.63;;
20363;SDS011;10340;53.664;9.908;2022-09-20T04:58:46;4.15;;;3.30;;
20363;SDS011;10340;53.664;9.908;2022-09-20T05:11:04;6.13;;;3.40;;
20363;SDS011;10340;53.664;9.908;2022-09-20T05:13:51;3.72;;;3.10;;
20363;SDS011;10340;53.664;9.908;2022-09-20T05:16:40;5.65;;;3.10;;
20363;SDS011;10340;53.664;9.908;2022-09-20T05:19:24;3.25;;;3.05;;
20363;SDS011;10340;53.664;9.908;2022-09-20T05:27:58;4.85;;;3.40;;
20363;SDS011;10340;53.664;9.908;2022-09-20T05:30:33;3.70;;;3.00;;
20363;SDS011;10340;53.664;9.908;2022-09-20T05:33:06;3.28;;;2.88;;
20363;SDS011;10340;53.664;9.908;2022-09-20T05:35:46;3.45;;;3.13;;
20363;SDS011;10340;53.664;9.908;2022-09-20T05:38:25;3.85;;;2.72;;
20363;SDS011;10340;53.664;9.908;2022-09-20T05:41:05;4.05;;;2.58;;
20363;SDS011;10340;53.664;9.908;2022-09-20T05:43:42;3.55;;;2.70;;
20363;SDS011;10340;53.664;9.908;2022-09-20T05:46:16;4.20;;;2.60;;
20363;SDS011;10340;53.664;9.908;2022-09-20T05:48:54;4.28;;;3.10;;
20363;SDS011;10340;53.664;9.908;2022-09-20T05:51:30;3.92;;;2.55;;
20363;SDS011;10340;53.664;9.908;2022-09-20T05:54:52;3.55;;;1.98;;
20363;SDS011;10340;53.664;9.908;2022-09-20T05:57:41;2.03;;;1.92;;
20363;SDS011;10340;53.664;9.908;2022-09-20T06:00:20;2.40;;;2.10;;
20363;SDS011;10340;53.664;9.908;2022-09-20T06:02:52;2.47;;;2.28;;
20363;SDS011;10340;53.664;9.908;2022-09-20T06:05:31;2.70;;;2.50;;
20363;SDS011;10340;53.664;9.908;2022-09-20T06:11:05;3.40;;;2.47;;
20363;SDS011;10340;53.664;9.908;2022-09-20T06:13:51;7.10;;;3.20;;
20363;SDS011;10340;53.664;9.908;2022-09-20T06:16:30;4.03;;;2.90;;
20363;SDS011;10340;53.664;9.908;2022-09-20T06:19:03;5.68;;;3.13;;
20363;SDS011;10340;53.664;9.908;2022-09-20T06:21:42;5.85;;;3.03;;
20363;SDS011;10340;53.664;9.908;2022-09-20T06:24:18;3.78;;;2.75;;
20363;SDS011;10340;53.664;9.908;2022-09-20T06:26:51;3.53;;;2.78;;
20363;SDS011;10340;53.664;9.908;2022-09-20T06:29:26;2.60;;;2.40;;
20363;SDS011;10340;53.664;9.908;2022-09-20T06:31:55;3.97;;;3.05;;
20363;SDS011;10340;53.664;9.908;2022-09-20T06:34:22;5.72;;;2.85;;
20363;SDS011;10340;53.664;9.908;2022-09-20T06:36:53;5.85;;;3.17;;
20363;SDS011;10340;53.664;9.908;2022-09-20T06:39:45;4.63;;;3.08;;
20363;SDS011;10340;53.664;9.908;2022-09-20T06:42:38;3.53;;;3.20;;
20363;SDS011;10340;53.664;9.908;2022-09-20T06:45:06;5.03;;;4.00;;
20363;SDS011;10340;53.664;9.908;2022-09-20T06:47:33;6.63;;;3.28;;
20363;SDS011;10340;53.664;9.908;2022-09-20T06:50:01;7.32;;;3.50;;
20363;SDS011;10340;53.664;9.908;2022-09-20T06:52:28;7.18;;;3.22;;
20363;SDS011;10340;53.664;9.908;2022-09-20T06:54:54;4.47;;;3.30;;
20363;SDS011;10340;53.664;9.908;2022-09-20T06:57:22;8.82;;;3.45;;
20363;SDS011;10340;53.664;9.908;2022-09-20T06:59:53;6.03;;;3.10;;
20363;SDS011;10340;53.664;9.908;2022-09-20T07:02:21;5.57;;;3.40;;
20363;SDS011;10340;53.664;9.908;2022-09-20T07:04:48;6.97;;;3.85;;
20363;SDS011;10340;53.664;9.908;2022-09-20T07:07:17;7.38;;;3.70;;
20363;SDS011;10340;53.664;9.908;2022-09-20T07:09:46;7.10;;;3.28;;
20363;SDS011;10340;53.664;9.908;2022-09-20T07:12:12;9.00;;;3.40;;
20363;SDS011;10340;53.664;9.908;2022-09-20T07:14:39;3.35;;;2.88;;
20363;SDS011;10340;53.664;9.908;2022-09-20T07:17:07;6.53;;;3.38;;
20363;SDS011;10340;53.664;9.908;2022-09-20T07:19:35;6.85;;;3.58;;
20363;SDS011;10340;53.664;9.908;2022-09-20T07:22:02;7.25;;;3.28;;
20363;SDS011;10340;53.664;9.908;2022-09-20T07:24:29;9.13;;;3.03;;
20363;SDS011;10340;53.664;9.908;2022-09-20T07:26:57;12.23;;;3.38;;
20363;SDS011;10340;53.664;9.908;2022-09-20T07:29:25;11.30;;;2.97;;
20363;SDS011;10340;53.664;9.908;2022-09-20T07:31:52;3.85;;;2.50;;
20363;SDS011;10340;53.664;9.908;2022-09-20T07:34:19;10.88;;;3.03;;
20363;SDS011;10340;53.664;9.908;2022-09-20T07:36:47;8.52;;;2.53;;
20363;SDS011;10340;53.664;9.908;2022-09-20T07:39:15;8.98;;;2.80;;
20363;SDS011;10340;53.664;9.908;2022-09-20T07:41:42;6.45;;;2.33;;
20363;SDS011;10340;53.664;9.908;2022-09-20T07:44:12;8.05;;;2.10;;
20363;SDS011;10340;53.664;9.908;2022-09-20T07:46:49;8.15;;;2.30;;
20363;SDS011;10340;53.664;9.908;2022-09-20T07:49:17;6.82;;;2.00;;
20363;SDS011;10340;53.664;9.908;2022-09-20T07:51:45;4.90;;;1.85;;
20363;SDS011;10340;53.664;9.908;2022-09-20T07:54:13;13.45;;;2.50;;
20363;SDS011;10340;53.664;9.908;2022-09-20T07:56:40;7.65;;;3.03;;
20363;SDS011;10340;53.664;9.908;2022-09-20T07:59:07;5.55;;;2.33;;
20363;SDS011;10340;53.664;9.908;2022-09-20T08:01:35;6.53;;;1.80;;
20363;SDS011;10340;53.664;9.908;2022-09-20T08:04:03;7.03;;;2.05;;
20363;SDS011;10340;53.664;9.908;2022-09-20T08:06:30;4.70;;;2.35;;
20363;SDS011;10340;53.664;9.908;2022-09-20T08:08:57;7.32;;;1.67;;
20363;SDS011;10340;53.664;9.908;2022-09-20T08:11:26;4.35;;;1.60;;
20363;SDS011;10340;53.664;9.908;2022-09-20T08:13:55;4.30;;;1.40;;
20363;SDS011;10340;53.664;9.908;2022-09-20T08:16:24;6.28;;;1.55;;
20363;SDS011;10340;53.664;9.908;2022-09-20T08:18:52;2.95;;;1.70;;
20363;SDS011;10340;53.664;9.908;2022-09-20T08:21:21;5.90;;;1.77;;
20363;SDS011;10340;53.664;9.908;2022-09-20T08:23:48;8.70;;;1.45;;
20363;SDS011;10340;53.664;9.908;2022-09-20T08:26:16;6.00;;;1.58;;
20363;SDS011;10340;53.664;9.908;2022-09-20T08:28:46;5.45;;;1.67;;
20363;SDS011;10340;53.664;9.908;2022-09-20T08:31:17;3.58;;;1.40;;
20363;SDS011;10340;53.664;9.908;2022-09-20T08:33:45;9.35;;;1.58;;
20363;SDS011;10340;53.664;9.908;2022-09-20T08:36:15;6.15;;;1.33;;
20363;SDS011;10340;53.664;9.908;2022-09-20T08:38:43;11.57;;;1.77;;
20363;SDS011;10340;53.664;9.908;2022-09-20T08:41:11;5.75;;;1.20;;
20363;SDS011;10340;53.664;9.908;2022-09-20T08:43:41;5.10;;;1.60;;
20363;SDS011;10340;53.664;9.908;2022-09-20T08:46:15;2.60;;;1.15;;
20363;SDS011;10340;53.664;9.908;2022-09-20T08:48:44;7.50;;;1.48;;
20363;SDS011;10340;53.664;9.908;2022-09-20T08:51:13;7.38;;;1.58;;
20363;SDS011;10340;53.664;9.908;2022-09-20T08:53:44;10.23;;;1.77;;
20363;SDS011;10340;53.664;9.908;2022-09-20T08:56:13;4.00;;;1.38;;
20363;SDS011;10340;53.664;9.908;2022-09-20T08:58:40;8.82;;;1.58;;
20363;SDS011;10340;53.664;9.908;2022-09-20T09:01:09;5.78;;;1.38;;
20363;SDS011;10340;53.664;9.908;2022-09-20T09:03:40;6.30;;;1.20;;
20363;SDS011;10340;53.664;9.908;2022-09-20T09:06:09;3.92;;;1.42;;
20363;SDS011;10340;53.664;9.908;2022-09-20T09:08:39;6.28;;;1.60;;
20363;SDS011;10340;53.664;9.908;2022-09-20T09:11:13;3.55;;;1.40;;
20363;SDS011;10340;53.664;9.908;2022-09-20T09:13:43;7.43;;;1.20;;
20363;SDS011;10340;53.664;9.908;2022-09-20T09:16:17;8.45;;;1.83;;
20363;SDS011;10340;53.664;9.908;2022-09-20T09:18:47;6.55;;;2.55;;
20363;SDS011;10340;53.664;9.908;2022-09-20T09:21:16;5.90;;;1.35;;
20363;SDS011;10340;53.664;9.908;2022-09-20T09:23:45;5.90;;;1.70;;
20363;SDS011;10340;53.664;9.908;2022-09-20T09:26:18;4.68;;;1.73;;
20363;SDS011;10340;53.664;9.908;2022-09-20T09:28:46;5.07;;;1.50;;
20363;SDS011;10340;53.664;9.908;2022-09-20T09:31:34;6.18;;;1.15;;
20363;SDS011;10340;53.664;9.908;2022-09-20T09:34:06;4.72;;;1.40;;
20363;SDS011;10340;53.664;9.908;2022-09-20T09:36:49;5.55;;;1.27;;
20363;SDS011;10340;53.664;9.908;2022-09-20T09:39:25;3.97;;;1.48;;
20363;SDS011;10340;53.664;9.908;2022-09-20T09:41:53;2.50;;;1.00;;
20363;SDS011;10340;53.664;9.908;2022-09-20T09:44:21;6.18;;;1.85;;
20363;SDS011;10340;53.664;9.908;2022-09-20T09:46:50;4.38;;;1.10;;
20363;SDS011;10340;53.664;9.908;2022-09-20T09:49:20;4.90;;;1.20;;
20363;SDS011;10340;53.664;9.908;2022-09-20T09:52:05;7.57;;;1.55;;
20363;SDS011;10340;53.664;9.908;2022-09-20T09:54:39;6.03;;;1.45;;
20363;SDS011;10340;53.664;9.908;2022-09-20T09:57:20;2.78;;;1.02;;
20363;SDS011;10340;53.664;9.908;2022-09-20T10:00:04;4.55;;;1.20;;
20363;SDS011;10340;53.664;9.908;2022-09-20T10:02:49;5.70;;;1.17;;
20363;SDS011;10340;53.664;9.908;2022-09-20T10:05:40;3.35;;;1.13;;
20363;SDS011;10340;53.664;9.908;2022-09-20T10:08:16;5.10;;;1.60;;
20363;SDS011;10340;53.664;9.908;2022-09-20T10:10:55;4.65;;;1.52;;
20363;SDS011;10340;53.664;9.908;2022-09-20T10:13:34;7.43;;;1.48;;
20363;SDS011;10340;53.664;9.908;2022-09-20T10:16:10;5.07;;;1.20;;
20363;SDS011;10340;53.664;9.908;2022-09-20T10:18:44;3.22;;;0.85;;
20363;SDS011;10340;53.664;9.908;2022-09-20T10:21:25;3.15;;;1.13;;
20363;SDS011;10340;53.664;9.908;2022-09-20T10:24:07;2.42;;;0.90;;
20363;SDS011;10340;53.664;9.908;2022-09-20T10:26:46;3.42;;;1.00;;
20363;SDS011;10340;53.664;9.908;2022-09-20T10:29:24;3.80;;;1.45;;
20363;SDS011;10340;53.664;9.908;2022-09-20T10:31:58;6.15;;;1.08;;
20363;SDS011;10340;53.664;9.908;2022-09-20T10:34:46;5.18;;;1.17;;
20363;SDS011;10340;53.664;9.908;2022-09-20T10:37:35;3.47;;;1.35;;
20363;SDS011;10340;53.664;9.908;2022-09-20T10:40:15;6.60;;;1.50;;
20363;SDS011;10340;53.664;9.908;2022-09-20T10:42:52;5.00;;;1.10;;
20363;SDS011;10340;53.664;9.908;2022-09-20T10:45:40;2.67;;;1.10;;
20363;SDS011;10340;53.664;9.908;2022-09-20T10:48:16;2.28;;;0.90;;
20363;SDS011;10340;53.664;9.908;2022-09-20T10:50:50;2.78;;;0.90;;
20363;SDS011;10340;53.664;9.908;2022-09-20T10:53:27;3.92;;;1.20;;
20363;SDS011;10340;53.664;9.908;2022-09-20T10:56:02;3.83;;;1.92;;
20363;SDS011;10340;53.664;9.908;2022-09-20T10:58:48;4.40;;;0.85;;
20363;SDS011;10340;53.664;9.908;2022-09-20T11:01:30;5.47;;;1.40;;
20363;SDS011;10340;53.664;9.908;2022-09-20T11:04:17;4.55;;;1.15;;
20363;SDS011;10340;53.664;9.908;2022-09-20T11:07:04;4.43;;;0.82;;
20363;SDS011;10340;53.664;9.908;2022-09-20T11:09:39;4.07;;;1.05;;
20363;SDS011;10340;53.664;9.908;2022-09-20T11:12:10;4.75;;;1.08;;
20363;SDS011;10340;53.664;9.908;2022-09-20T11:14:42;2.80;;;1.10;;
20363;SDS011;10340;53.664;9.908;2022-09-20T11:17:14;4.55;;;1.00;;
20363;SDS011;10340;53.664;9.908;2022-09-20T11:19:49;3.42;;;1.77;;
20363;SDS011;10340;53.664;9.908;2022-09-20T11:22:21;1.60;;;0.85;;
20363;SDS011;10340;53.664;9.908;2022-09-20T11:24:52;5.28;;;1.13;;
20363;SDS011;10340;53.664;9.908;2022-09-20T11:27:25;4.70;;;1.23;;
20363;SDS011;10340;53.664;9.908;2022-09-20T11:29:57;4.18;;;1.45;;
20363;SDS011;10340;53.664;9.908;2022-09-20T11:32:29;3.03;;;0.90;;
20363;SDS011;10340;53.664;9.908;2022-09-20T11:35:02;4.43;;;1.00;;
20363;SDS011;10340;53.664;9.908;2022-09-20T11:37:45;6.72;;;1.10;;
20363;SDS011;10340;53.664;9.908;2022-09-20T11:40:18;4.32;;;1.10;;
20363;SDS011;10340;53.664;9.908;2022-09-20T11:42:50;3.05;;;0.93;;
20363;SDS011;10340;53.664;9.908;2022-09-20T11:45:18;3.50;;;0.95;;
20363;SDS011;10340;53.664;9.908;2022-09-20T11:47:47;6.20;;;1.27;;
20363;SDS011;10340;53.664;9.908;2022-09-20T11:50:40;3.20;;;1.08;;
20363;SDS011;10340;53.664;9.908;2022-09-20T11:53:32;5.60;;;1.38;;
20363;SDS011;10340;53.664;9.908;2022-09-20T11:56:11;2.30;;;1.23;;
20363;SDS011;10340;53.664;9.908;2022-09-20T11:58:44;3.28;;;1.10;;
20363;SDS011;10340;53.664;9.908;2022-09-20T12:01:13;6.50;;;0.80;;
20363;SDS011;10340;53.664;9.908;2022-09-20T12:03:49;3.25;;;1.08;;
20363;SDS011;10340;53.664;9.908;2022-09-20T12:06:23;4.57;;;0.85;;
20363;SDS011;10340;53.664;9.908;2022-09-20T12:08:52;4.10;;;0.90;;
20363;SDS011;10340;53.664;9.908;2022-09-20T12:11:29;2.83;;;1.05;;
20363;SDS011;10340;53.664;9.908;2022-09-20T12:14:00;2.22;;;0.90;;
20363;SDS011;10340;53.664;9.908;2022-09-20T12:16:37;2.17;;;0.68;;
20363;SDS011;10340;53.664;9.908;2022-09-20T12:19:07;2.03;;;0.80;;
20363;SDS011;10340;53.664;9.908;2022-09-20T12:24:40;2.00;;;0.60;;
20363;SDS011;10340;53.664;9.908;2022-09-20T12:27:20;3.40;;;0.93;;
20363;SDS011;10340;53.664;9.908;2022-09-20T12:30:15;3.47;;;1.00;;
20363;SDS011;10340;53.664;9.908;2022-09-20T12:32:47;1.70;;;0.60;;
20363;SDS011;10340;53.664;9.908;2022-09-20T12:38:48;2.70;;;0.80;;
20363;SDS011;10340;53.664;9.908;2022-09-20T12:41:46;2.03;;;0.70;;
20363;SDS011;10340;53.664;9.908;2022-09-20T12:44:27;4.07;;;1.25;;
20363;SDS011;10340;53.664;9.908;2022-09-20T12:46:57;3.50;;;0.88;;
20363;SDS011;10340;53.664;9.908;2022-09-20T12:52:36;5.00;;;0.95;;
20363;SDS011;10340;53.664;9.908;2022-09-20T12:55:33;1.65;;;0.68;;
20363;SDS011;10340;53.664;9.908;2022-09-20T12:58:19;3.58;;;0.80;;
20363;SDS011;10340;53.664;9.908;2022-09-20T13:13:00;4.03;;;0.80;;
20363;SDS011;10340;53.664;9.908;2022-09-20T13:15:36;2.95;;;1.00;;
20363;SDS011;10340;53.664;9.908;2022-09-20T13:18:05;2.08;;;0.70;;
20363;SDS011;10340;53.664;9.908;2022-09-20T13:20:38;2.83;;;0.80;;
20363;SDS011;10340;53.664;9.908;2022-09-20T13:23:09;2.22;;;0.90;;
20363;SDS011;10340;53.664;9.908;2022-09-20T13:25:44;1.48;;;0.60;;
20363;SDS011;10340;53.664;9.908;2022-09-20T13:28:15;2.53;;;0.82;;
20363;SDS011;10340;53.664;9.908;2022-09-20T13:31:01;3.80;;;1.10;;
20363;SDS011;10340;53.664;9.908;2022-09-20T13:33:52;2.92;;;0.90;;
20363;SDS011;10340;53.664;9.908;2022-09-20T13:36:22;3.42;;;0.82;;
20363;SDS011;10340;53.664;9.908;2022-09-20T13:38:52;2.83;;;1.00;;
20363;SDS011;10340;53.664;9.908;2022-09-20T13:41:21;3.03;;;1.00;;
20363;SDS011;10340;53.664;9.908;2022-09-20T13:43:53;2.67;;;0.77;;
20363;SDS011;10340;53.664;9.908;2022-09-20T13:46:21;1.88;;;0.80;;
20363;SDS011;10340;53.664;9.908;2022-09-20T13:48:55;2.13;;;0.85;;
20363;SDS011;10340;53.664;9.908;2022-09-20T13:51:32;2.72;;;0.90;;
20363;SDS011;10340;53.664;9.908;2022-09-20T13:56:43;4.93;;;0.90;;
20363;SDS011;10340;53.664;9.908;2022-09-20T13:59:10;2.08;;;0.85;;
20363;SDS011;10340;53.664;9.908;2022-09-20T14:01:43;3.33;;;0.85;;
20363;SDS011;10340;53.664;9.908;2022-09-20T14:04:16;4.30;;;0.80;;
20363;SDS011;10340;53.664;9.908;2022-09-20T14:06:46;3.45;;;1.00;;
20363;SDS011;10340;53.664;9.908;2022-09-20T14:09:18;1.63;;;0.98;;
20363;SDS011;10340;53.664;9.908;2022-09-20T14:11:48;1.25;;;0.57;;
20363;SDS011;10340;53.664;9.908;2022-09-20T14:14:16;1.98;;;0.70;;
20363;SDS011;10340;53.664;9.908;2022-09-20T14:16:45;2.35;;;0.77;;
20363;SDS011;10340;53.664;9.908;2022-09-20T14:19:14;3.03;;;0.68;;
20363;SDS011;10340;53.664;9.908;2022-09-20T14:21:44;2.33;;;0.95;;
20363;SDS011;10340;53.664;9.908;2022-09-20T14:24:27;1.50;;;0.88;;
20363;SDS011;10340;53.664;9.908;2022-09-20T14:29:42;2.00;;;0.80;;
20363;SDS011;10340;53.664;9.908;2022-09-20T14:32:18;2.30;;;0.80;;
20363;SDS011;10340;53.664;9.908;2022-09-20T14:35:11;3.00;;;0.55;;
20363;SDS011;10340;53.664;9.908;2022-09-20T14:37:42;4.28;;;0.80;;
20363;SDS011;10340;53.664;9.908;2022-09-20T14:40:15;1.73;;;0.60;;
20363;SDS011;10340;53.664;9.908;2022-09-20T14:42:48;3.38;;;0.70;;
20363;SDS011;10340;53.664;9.908;2022-09-20T14:45:21;2.45;;;0.63;;
20363;SDS011;10340;53.664;9.908;2022-09-20T14:47:57;4.07;;;0.85;;
20363;SDS011;10340;53.664;9.908;2022-09-20T14:50:29;1.55;;;0.68;;
20363;SDS011;10340;53.664;9.908;2022-09-20T14:55:54;1.83;;;0.75;;
20363;SDS011;10340;53.664;9.908;2022-09-20T14:58:22;1.98;;;0.80;;
20363;SDS011;10340;53.664;9.908;2022-09-20T15:00:51;2.30;;;1.00;;
20363;SDS011;10340;53.664;9.908;2022-09-20T15:03:23;2.55;;;0.73;;
20363;SDS011;10340;53.664;9.908;2022-09-20T15:05:53;2.33;;;0.80;;
20363;SDS011;10340;53.664;9.908;2022-09-20T15:08:20;2.95;;;1.02;;
20363;SDS011;10340;53.664;9.908;2022-09-20T15:10:47;3.58;;;1.35;;
20363;SDS011;10340;53.664;9.908;2022-09-20T15:13:14;1.55;;;0.85;;
20363;SDS011;10340;53.664;9.908;2022-09-20T15:15:41;2.70;;;0.70;;
20363;SDS011;10340;53.664;9.908;2022-09-20T15:18:11;0.88;;;0.52;;
20363;SDS011;10340;53.664;9.908;2022-09-20T15:20:45;3.70;;;0.90;;
20363;SDS011;10340;53.664;9.908;2022-09-20T15:23:14;1.50;;;1.00;;
20363;SDS011;10340;53.664;9.908;2022-09-20T15:25:41;3.72;;;0.75;;
20363;SDS011;10340;53.664;9.908;2022-09-20T15:28:09;4.15;;;0.70;;
20363;SDS011;10340;53.664;9.908;2022-09-20T15:30:41;2.80;;;0.70;;
20363;SDS011;10340;53.664;9.908;2022-09-20T15:33:08;1.88;;;0.90;;
20363;SDS011;10340;53.664;9.908;2022-09-20T15:35:36;2.63;;;1.33;;
20363;SDS011;10340;53.664;9.908;2022-09-20T15:38:03;3.63;;;0.90;;
20363;SDS011;10340;53.664;9.908;2022-09-20T15:40:34;3.28;;;1.05;;
20363;SDS011;10340;53.664;9.908;2022-09-20T15:43:02;2.72;;;0.80;;
20363;SDS011;10340;53.664;9.908;2022-09-20T15:45:29;1.90;;;0.65;;
20363;SDS011;10340;53.664;9.908;2022-09-20T15:47:56;2.95;;;0.80;;
20363;SDS011;10340;53.664;9.908;2022-09-20T15:50:23;1.95;;;0.82;;
20363;SDS011;10340;53.664;9.908;2022-09-20T15:52:50;5.72;;;1.60;;
20363;SDS011;10340;53.664;9.908;2022-09-20T15:55:17;3.47;;;0.88;;
20363;SDS011;10340;53.664;9.908;2022-09-20T15:57:46;2.17;;;0.65;;
20363;SDS011;10340;53.664;9.908;2022-09-20T16:00:14;3.25;;;0.80;;
20363;SDS011;10340;53.664;9.908;2022-09-20T16:02:42;4.47;;;1.10;;
20363;SDS011;10340;53.664;9.908;2022-09-20T16:05:09;1.42;;;0.82;;
20363;SDS011;10340;53.664;9.908;2022-09-20T16:07:36;1.35;;;0.70;;
20363;SDS011;10340;53.664;9.908;2022-09-20T16:10:03;2.10;;;0.60;;
20363;SDS011;10340;53.664;9.908;2022-09-20T16:12:31;3.05;;;0.98;;
20363;SDS011;10340;53.664;9.908;2022-09-20T16:14:59;3.22;;;1.40;;
20363;SDS011;10340;53.664;9.908;2022-09-20T16:17:26;2.03;;;0.80;;
20363;SDS011;10340;53.664;9.908;2022-09-20T16:20:07;2.05;;;1.00;;
20363;SDS011;10340;53.664;9.908;2022-09-20T16:22:34;2.35;;;1.17;;
20363;SDS011;10340;53.664;9.908;2022-09-20T16:25:01;3.10;;;1.48;;
20363;SDS011;10340;53.664;9.908;2022-09-20T16:27:30;3.55;;;0.80;;
20363;SDS011;10340;53.664;9.908;2022-09-20T16:30:00;2.60;;;1.02;;
20363;SDS011;10340;53.664;9.908;2022-09-20T16:32:27;2.83;;;1.35;;
20363;SDS011;10340;53.664;9.908;2022-09-20T16:34:54;2.40;;;1.00;;
20363;SDS011;10340;53.664;9.908;2022-09-20T16:37:22;3.75;;;1.08;;
20363;SDS011;10340;53.664;9.908;2022-09-20T16:39:50;2.67;;;0.90;;
20363;SDS011;10340;53.664;9.908;2022-09-20T16:42:17;1.40;;;0.68;;
20363;SDS011;10340;53.664;9.908;2022-09-20T16:44:45;1.73;;;0.70;;